createdAt,value
2018-05-31T02:53:02.667Z,22.70
2018-05-31T02:55:35.696Z,22.50
2018-05-31T02:58:08.799Z,22.70
2018-05-31T03:00:41.967Z,22.70
2018-05-31T03:03:15.105Z,22.60
2018-05-31T03:05:48.404Z,22.50
2018-05-31T03:08:21.607Z,22.40
2018-05-31T03:10:54.795Z,22.50
2018-05-31T03:13:27.991Z,22.50
2018-05-31T03:16:01.182Z,22.20
2018-05-31T03:18:35.184Z,22.10
2018-05-31T03:21:08.291Z,22.00
2018-05-31T03:23:42.283Z,22.10
2018-05-31T03:26:15.296Z,22.10
2018-05-31T03:28:48.496Z,22.50
2018-05-31T03:31:22.464Z,22.30
2018-05-31T03:33:56.455Z,22.40
2018-05-31T03:36:29.748Z,22.40
2018-05-31T03:39:02.865Z,22.30
2018-05-31T03:41:36.098Z,21.90
2018-05-31T03:44:09.360Z,22.10
2018-05-31T03:46:43.452Z,22.20
2018-05-31T03:49:16.682Z,22.20
2018-05-31T03:51:49.975Z,22.40
2018-05-31T03:54:22.986Z,22.40
2018-05-31T03:56:56.267Z,22.40
2018-05-31T03:59:30.319Z,22.40
2018-05-31T04:02:03.665Z,22.40
2018-05-31T04:04:36.897Z,22.40
2018-05-31T04:07:10.713Z,22.50
2018-05-31T04:09:44.001Z,22.50
2018-05-31T04:12:18.178Z,22.50
2018-05-31T04:14:51.555Z,22.50
2018-05-31T04:17:25.047Z,22.60
2018-05-31T04:19:59.778Z,22.40
2018-05-31T04:22:33.493Z,22.40
2018-05-31T04:25:07.290Z,22.40
2018-05-31T04:27:40.965Z,22.60
2018-05-31T04:30:14.782Z,22.40
2018-05-31T04:32:48.071Z,22.40
2018-05-31T04:35:22.359Z,22.40
2018-05-31T04:37:55.751Z,22.40
2018-05-31T04:40:29.781Z,22.70
2018-05-31T04:43:03.233Z,22.60
2018-05-31T04:45:36.680Z,22.40
2018-05-31T04:48:11.629Z,22.40
2018-05-31T04:50:45.106Z,22.40
2018-05-31T04:53:18.519Z,22.40
2018-05-31T04:55:52.326Z,22.30
2018-05-31T04:58:25.764Z,22.50
2018-05-31T05:00:59.161Z,22.50
2018-05-31T05:03:32.985Z,22.50
2018-05-31T05:06:07.012Z,22.50
2018-05-31T05:08:41.024Z,22.50
2018-05-31T05:11:14.250Z,22.50
2018-05-31T05:13:48.337Z,22.50
2018-05-31T05:16:21.594Z,22.50
2018-05-31T05:18:54.582Z,22.40
2018-05-31T05:21:27.908Z,22.30
2018-05-31T05:24:01.144Z,22.30
2018-05-31T05:26:34.537Z,22.40
2018-05-31T05:29:07.636Z,22.40
2018-05-31T05:31:40.903Z,22.40
2018-05-31T05:34:14.034Z,22.40
2018-05-31T05:36:47.993Z,22.50
2018-05-31T05:39:21.150Z,22.50
2018-05-31T05:41:54.343Z,22.50
2018-05-31T05:44:27.469Z,22.40
2018-05-31T05:47:00.657Z,22.50
2018-05-31T05:49:34.556Z,22.50
2018-05-31T05:52:08.559Z,22.50
2018-05-31T05:54:42.514Z,22.50
2018-05-31T05:57:15.793Z,22.50
2018-05-31T05:59:49.014Z,22.70
2018-05-31T06:02:22.118Z,22.50
2018-05-31T06:04:55.336Z,22.30
2018-05-31T06:07:29.373Z,22.60
2018-05-31T06:10:03.353Z,22.50
2018-05-31T06:12:36.423Z,22.50
2018-05-31T06:15:09.659Z,22.50
2018-05-31T06:17:42.743Z,22.50
2018-05-31T06:20:15.899Z,22.60
2018-05-31T06:22:48.904Z,22.60
2018-05-31T06:25:22.120Z,22.70
2018-05-31T06:27:56.130Z,22.30
2018-05-31T06:30:29.346Z,22.30
2018-05-31T06:33:02.806Z,22.40
2018-05-31T06:35:36.709Z,22.90
2018-05-31T06:38:09.753Z,22.90
2018-05-31T06:41:06.978Z,23.00
2018-05-31T06:43:48.054Z,22.70
2018-05-31T06:46:21.250Z,22.70
2018-05-31T06:48:54.559Z,22.90
2018-05-31T06:51:28.529Z,22.90
2018-05-31T06:54:04.855Z,22.90
2018-05-31T07:05:43.152Z,23.10
2018-05-31T07:08:17.008Z,22.80
2018-05-31T07:10:50.184Z,22.80
2018-05-31T07:13:23.425Z,22.90
2018-05-31T07:15:56.607Z,23.00
2018-05-31T07:18:29.732Z,22.90
2018-05-31T07:21:02.943Z,23.20
2018-05-31T07:23:36.150Z,23.20
2018-05-31T07:26:09.963Z,23.30
2018-05-31T07:28:43.124Z,23.30
2018-05-31T07:31:16.322Z,23.60
2018-05-31T07:33:49.355Z,23.80
2018-05-31T07:36:23.896Z,24.40
2018-05-31T07:38:57.606Z,24.40
2018-05-31T07:41:31.542Z,24.80
2018-05-31T07:44:04.673Z,24.80
2018-05-31T07:46:37.806Z,24.90
2018-05-31T07:49:11.112Z,25.00
2018-05-31T07:51:44.248Z,25.00
2018-05-31T07:54:17.461Z,25.20
2018-05-31T07:56:50.666Z,25.20
2018-05-31T07:59:23.839Z,25.10
2018-05-31T08:01:57.044Z,25.10
2018-05-31T08:04:30.265Z,25.10
2018-05-31T08:07:03.867Z,24.90
2018-05-31T08:09:36.913Z,24.80
2018-05-31T08:12:10.170Z,24.80
2018-05-31T08:14:43.350Z,24.70
2018-05-31T08:17:16.416Z,24.80
2018-05-31T08:19:49.625Z,24.80
2018-05-31T08:22:22.819Z,24.80
2018-05-31T08:24:56.035Z,24.80
2018-05-31T08:27:30.027Z,24.80
2018-05-31T08:30:04.026Z,24.80
2018-05-31T08:32:37.200Z,24.70
2018-05-31T08:35:10.484Z,24.70
2018-05-31T08:37:43.652Z,24.70
2018-05-31T08:40:16.856Z,24.90
2018-05-31T08:42:50.104Z,24.90
2018-05-31T08:45:23.315Z,25.10
2018-05-31T08:47:56.351Z,25.00
2018-05-31T08:50:29.600Z,25.00
2018-05-31T08:53:02.803Z,25.00
2018-05-31T08:55:35.955Z,25.10
2018-05-31T08:58:09.142Z,25.20
2018-05-31T09:00:42.360Z,25.10
2018-05-31T09:03:15.453Z,25.00
2018-05-31T09:05:48.654Z,25.00
2018-05-31T09:08:21.712Z,25.10
2018-05-31T09:10:54.858Z,25.30
2018-05-31T09:13:28.031Z,25.50
2018-05-31T09:16:01.171Z,25.50
2018-05-31T09:18:34.166Z,25.60
2018-05-31T09:21:07.356Z,25.60
2018-05-31T09:23:40.519Z,25.50
2018-05-31T09:26:14.475Z,25.90
2018-05-31T09:28:47.730Z,25.90
2018-05-31T09:31:20.926Z,26.10
2018-05-31T09:33:54.252Z,26.30
2018-05-31T09:36:27.452Z,26.40
2018-05-31T09:39:01.311Z,26.50
2018-05-31T09:41:35.794Z,26.70
2018-05-31T09:47:09.416Z,26.70
2018-05-31T09:49:42.736Z,26.70
2018-05-31T09:52:16.897Z,26.40
2018-05-31T09:57:38.267Z,26.10
2018-05-31T10:00:11.417Z,26.10
2018-05-31T10:02:45.432Z,26.10
2018-05-31T10:05:18.704Z,26.00
2018-05-31T10:07:51.819Z,26.10
2018-05-31T10:10:24.830Z,26.30
2018-05-31T10:12:57.759Z,26.40
2018-05-31T10:15:31.728Z,26.30
2018-05-31T10:18:05.819Z,26.30
2018-05-31T10:20:39.071Z,26.40
2018-05-31T10:23:12.060Z,26.70
2018-05-31T10:25:45.245Z,26.90
2018-05-31T10:28:18.527Z,27.20
2018-05-31T10:30:51.693Z,27.10
2018-05-31T10:33:24.858Z,26.90
2018-05-31T10:35:59.242Z,27.00
2018-05-31T10:38:32.536Z,27.10
2018-05-31T10:41:06.413Z,27.10
2018-05-31T10:43:40.211Z,27.10
2018-05-31T10:46:14.126Z,27.30
2018-05-31T10:48:47.204Z,27.30
2018-05-31T10:51:20.437Z,27.40
2018-05-31T10:53:54.487Z,27.10
2018-05-31T10:56:27.737Z,27.10
2018-05-31T10:59:00.991Z,27.40
2018-05-31T11:01:34.230Z,27.60
2018-05-31T11:04:07.490Z,27.60
2018-05-31T11:06:41.494Z,27.70
2018-05-31T11:09:14.805Z,27.70
2018-05-31T11:11:47.943Z,28.00
2018-05-31T11:14:22.003Z,28.30
2018-05-31T11:16:55.140Z,28.30
2018-05-31T11:19:28.287Z,28.10
2018-05-31T11:22:01.684Z,28.20
2018-05-31T11:24:34.768Z,28.30
2018-05-31T11:27:07.906Z,28.00
2018-05-31T11:29:41.123Z,27.80
2018-05-31T11:32:14.384Z,28.00
2018-05-31T11:34:47.596Z,27.80
2018-05-31T11:37:20.769Z,27.60
2018-05-31T11:39:54.018Z,27.40
2018-05-31T11:42:27.242Z,27.90
2018-05-31T11:45:00.419Z,28.00
2018-05-31T11:47:34.968Z,28.10
2018-05-31T11:50:08.024Z,28.00
2018-05-31T11:52:41.113Z,27.60
2018-05-31T11:55:14.255Z,27.50
2018-05-31T11:57:48.446Z,27.70
2018-05-31T12:00:21.613Z,27.70
2018-05-31T12:02:54.816Z,27.80
2018-05-31T12:05:27.994Z,27.90
2018-05-31T12:08:01.179Z,28.00
2018-05-31T12:10:34.245Z,28.20
2018-05-31T12:13:07.451Z,28.00
2018-05-31T12:15:40.705Z,28.10
2018-05-31T12:18:13.916Z,28.20
2018-05-31T12:20:47.976Z,28.30
2018-05-31T12:23:21.266Z,28.30
2018-05-31T12:25:54.390Z,28.10
2018-05-31T12:28:27.576Z,28.50
2018-05-31T12:31:00.726Z,28.90
2018-05-31T12:33:33.673Z,29.40
2018-05-31T12:36:08.006Z,29.30
2018-05-31T12:38:41.215Z,29.30
2018-05-31T12:41:14.947Z,28.60
2018-05-31T12:43:48.984Z,28.70
2018-05-31T12:46:22.175Z,28.80
2018-05-31T12:49:03.260Z,29.20
2018-05-31T12:51:36.252Z,29.20
2018-05-31T12:54:10.172Z,29.50
2018-05-31T12:56:43.398Z,29.50
2018-05-31T12:59:16.424Z,29.60
2018-05-31T13:01:50.130Z,29.30
2018-05-31T13:04:23.071Z,29.20
2018-05-31T13:06:56.143Z,28.90
2018-05-31T13:09:29.251Z,28.90
2018-05-31T13:12:02.279Z,28.90
2018-05-31T13:14:35.465Z,28.70
2018-05-31T13:17:08.672Z,29.20
2018-05-31T13:19:42.548Z,29.20
2018-05-31T13:22:16.279Z,29.40
2018-05-31T13:24:49.484Z,29.40
2018-05-31T13:27:22.717Z,29.30
2018-05-31T13:29:55.945Z,29.40
2018-05-31T13:32:29.003Z,29.10
2018-05-31T13:35:02.048Z,29.50
2018-05-31T13:37:35.179Z,29.80
2018-05-31T13:40:08.375Z,29.80
2018-05-31T13:42:41.564Z,29.80
2018-05-31T13:45:15.537Z,29.40
2018-05-31T13:47:49.505Z,29.50
2018-05-31T13:50:23.477Z,29.60
2018-05-31T13:52:56.675Z,29.60
2018-05-31T13:55:29.899Z,29.70
2018-05-31T13:58:03.045Z,29.80
2018-05-31T14:00:36.305Z,30.00
2018-05-31T14:03:09.624Z,30.20
2018-05-31T14:05:42.772Z,30.20
2018-05-31T14:08:16.742Z,30.00
2018-05-31T14:10:49.903Z,30.00
2018-05-31T14:13:22.983Z,30.40
2018-05-31T14:15:56.194Z,30.70
2018-05-31T14:18:29.383Z,30.70
2018-05-31T14:21:02.607Z,30.50
2018-05-31T14:23:35.779Z,30.60
2018-05-31T14:26:09.037Z,30.60
2018-05-31T14:28:42.241Z,30.70
2018-05-31T14:31:15.224Z,30.60
2018-05-31T14:33:48.363Z,30.90
2018-05-31T14:36:21.619Z,30.60
2018-05-31T14:38:54.711Z,30.20
2018-05-31T14:41:27.742Z,30.60
2018-05-31T14:44:00.978Z,30.90
2018-05-31T14:46:33.987Z,31.50
2018-05-31T14:49:07.943Z,34.70
2018-05-31T14:51:41.068Z,34.70
2018-05-31T14:54:14.277Z,32.40
2018-05-31T14:56:47.366Z,31.20
2018-05-31T14:59:21.266Z,35.20
2018-05-31T15:01:54.355Z,35.20
2018-05-31T15:04:27.502Z,34.40
2018-05-31T15:07:00.707Z,32.00
2018-05-31T15:09:33.819Z,30.90
2018-05-31T15:12:06.992Z,34.30
2018-05-31T15:14:40.944Z,36.40
2018-05-31T15:17:14.163Z,36.40
2018-05-31T15:19:47.385Z,37.20
2018-05-31T15:22:21.356Z,37.40
2018-05-31T15:24:54.612Z,37.40
2018-05-31T15:27:27.780Z,36.90
2018-05-31T15:30:00.931Z,36.90
2018-05-31T15:32:33.887Z,37.80
2018-05-31T15:35:07.893Z,39.20
2018-05-31T15:37:41.111Z,39.10
2018-05-31T15:40:14.271Z,39.20
2018-05-31T15:42:47.227Z,40.30
2018-05-31T15:45:20.535Z,38.10
2018-05-31T15:47:54.395Z,37.20
2018-05-31T15:50:28.436Z,36.40
2018-05-31T15:53:01.581Z,36.30
2018-05-31T15:55:34.716Z,35.40
2018-05-31T15:58:07.880Z,36.00
2018-05-31T16:00:41.453Z,35.40
2018-05-31T16:03:14.445Z,35.40
2018-05-31T16:05:47.652Z,34.70
2018-05-31T16:08:20.874Z,34.50
2018-05-31T16:10:54.091Z,34.40
2018-05-31T16:13:27.366Z,33.20
2018-05-31T16:16:01.160Z,32.80
2018-05-31T16:18:34.830Z,33.90
2018-05-31T16:21:10.324Z,35.50
2018-05-31T16:23:44.166Z,37.60
2018-05-31T16:26:17.955Z,38.60
2018-05-31T16:28:51.523Z,37.80
2018-05-31T16:31:25.379Z,36.90
2018-05-31T16:33:59.147Z,36.90
2018-05-31T16:36:32.732Z,37.40
2018-05-31T16:39:06.541Z,35.40
2018-05-31T16:41:40.158Z,36.40
2018-05-31T16:44:13.828Z,37.50
2018-05-31T16:46:48.200Z,37.00
2018-05-31T16:49:21.347Z,36.90
2018-05-31T16:51:54.597Z,37.30
2018-05-31T16:54:27.628Z,36.40
2018-05-31T16:57:00.904Z,36.60
2018-05-31T16:59:34.623Z,35.40
2018-05-31T17:02:07.778Z,35.40
2018-05-31T17:04:40.977Z,34.60
2018-05-31T17:07:14.798Z,32.90
2018-05-31T17:09:48.003Z,32.90
2018-05-31T17:12:21.215Z,32.40
2018-05-31T17:14:54.456Z,32.50
2018-05-31T17:17:27.612Z,32.10
2018-05-31T17:20:00.825Z,31.60
2018-05-31T17:22:34.884Z,30.90
2018-05-31T17:25:08.128Z,30.80
2018-05-31T17:27:41.355Z,31.30
2018-05-31T17:30:14.588Z,31.90
2018-05-31T17:32:47.714Z,32.10
2018-05-31T17:35:20.927Z,31.20
2018-05-31T17:37:54.071Z,31.00
2018-05-31T17:40:27.300Z,30.70
2018-05-31T17:43:00.488Z,30.80
2018-05-31T17:45:33.619Z,31.30
2018-05-31T17:48:06.795Z,31.50
2018-05-31T17:50:39.827Z,31.90
2018-05-31T17:53:12.993Z,31.60
2018-05-31T17:55:46.307Z,31.40
2018-05-31T17:58:19.571Z,31.10
2018-05-31T18:00:53.484Z,31.80
2018-05-31T18:03:27.443Z,31.20
2018-05-31T18:06:02.289Z,30.80
2018-05-31T18:08:35.356Z,30.80
2018-05-31T18:11:08.572Z,31.60
2018-05-31T18:13:41.591Z,31.40
2018-05-31T18:16:15.328Z,31.80
2018-05-31T18:18:48.557Z,31.80
2018-05-31T18:21:21.739Z,31.70
2018-05-31T18:23:54.937Z,31.40
2018-05-31T18:26:28.904Z,31.70
2018-05-31T18:29:02.068Z,31.70
2018-05-31T18:31:35.301Z,31.20
2018-05-31T18:34:08.516Z,30.50
2018-05-31T18:36:41.633Z,30.40
2018-05-31T18:39:14.810Z,30.00
2018-05-31T18:41:48.023Z,30.50
2018-05-31T18:44:21.956Z,30.00
2018-05-31T18:46:55.116Z,30.00
2018-05-31T18:49:28.316Z,30.20
2018-05-31T18:52:01.505Z,30.60
2018-05-31T18:54:34.715Z,30.30
2018-05-31T18:57:07.905Z,30.30
2018-05-31T18:59:41.778Z,30.10
2018-05-31T19:02:14.795Z,30.10
2018-05-31T19:04:48.012Z,29.90
2018-05-31T19:07:21.996Z,29.80
2018-05-31T19:09:55.721Z,29.70
2018-05-31T19:12:28.863Z,29.60
2018-05-31T19:15:02.054Z,29.50
2018-05-31T19:17:35.051Z,29.30
2018-05-31T19:20:08.183Z,28.60
2018-05-31T19:22:42.199Z,28.60
2018-05-31T19:25:15.435Z,28.60
2018-05-31T19:27:48.625Z,28.90
2018-05-31T19:30:21.883Z,29.20
2018-05-31T19:32:54.925Z,29.40
2018-05-31T19:35:28.145Z,29.30
2018-05-31T19:38:01.342Z,29.10
2018-05-31T19:40:34.557Z,29.10
2018-05-31T19:43:07.797Z,29.20
2018-05-31T19:45:40.996Z,28.80
2018-05-31T19:48:14.168Z,28.90
2018-05-31T19:50:47.379Z,28.60
2018-05-31T19:53:20.484Z,28.60
2018-05-31T19:55:53.505Z,28.40
2018-05-31T19:58:26.764Z,28.10
2018-05-31T20:01:14.330Z,28.00
2018-05-31T20:03:48.097Z,27.80
2018-05-31T20:06:21.349Z,27.80
2018-05-31T20:08:54.542Z,27.90
2018-05-31T20:11:27.585Z,28.10
2018-05-31T20:14:00.834Z,27.80
2018-05-31T20:16:34.035Z,27.50
2018-05-31T20:19:07.225Z,27.80
2018-05-31T20:21:40.383Z,28.00
2018-05-31T20:24:13.619Z,28.00
2018-05-31T20:26:46.800Z,28.00
2018-05-31T20:29:19.998Z,28.10
2018-05-31T20:31:53.245Z,28.20
2018-05-31T20:34:27.253Z,28.10
2018-05-31T20:37:00.392Z,28.10
2018-05-31T20:39:33.609Z,27.90
2018-05-31T20:42:07.964Z,27.80
2018-05-31T20:44:41.147Z,27.40
2018-05-31T20:47:14.465Z,27.60
2018-05-31T20:49:47.607Z,27.50
2018-05-31T20:52:20.820Z,27.10
2018-05-31T20:54:54.935Z,27.10
2018-05-31T20:57:27.987Z,27.10
2018-05-31T21:00:01.165Z,26.90
2018-05-31T21:02:35.151Z,27.00
2018-05-31T21:05:08.379Z,26.90
2018-05-31T21:07:41.635Z,26.60
2018-05-31T21:10:14.864Z,26.80
2018-05-31T21:12:48.131Z,27.10
2018-05-31T21:15:21.299Z,27.00
2018-05-31T21:17:55.181Z,27.10
2018-05-31T21:20:28.314Z,27.00
2018-05-31T21:23:01.791Z,27.20
2018-05-31T21:25:34.862Z,27.00
2018-05-31T21:28:08.748Z,27.10
2018-05-31T21:30:42.747Z,27.00
2018-05-31T21:33:15.692Z,27.00
2018-05-31T21:35:48.947Z,27.20
2018-05-31T21:38:22.215Z,27.10
2018-05-31T21:40:55.412Z,27.10
2018-05-31T21:43:28.611Z,26.80
2018-05-31T21:46:01.800Z,26.50
2018-05-31T21:48:35.019Z,26.30
2018-05-31T21:51:08.289Z,26.40
2018-05-31T21:53:41.678Z,26.50
2018-05-31T21:56:15.683Z,26.60
2018-05-31T21:58:48.804Z,26.50
2018-05-31T22:01:21.944Z,26.60
2018-05-31T22:03:55.223Z,26.40
2018-05-31T22:06:28.265Z,26.60
2018-05-31T22:09:01.578Z,26.40
2018-05-31T22:11:34.732Z,26.40
2018-05-31T22:14:07.940Z,26.20
2018-05-31T22:16:41.860Z,26.00
2018-05-31T22:19:15.092Z,25.80
2018-05-31T22:21:48.271Z,25.70
2018-05-31T22:24:21.463Z,25.60
2018-05-31T22:26:55.351Z,25.10
2018-05-31T22:29:28.445Z,25.10
2018-05-31T22:32:01.617Z,25.10
2018-05-31T22:34:35.560Z,25.30
2018-05-31T22:37:08.751Z,25.30
2018-05-31T22:39:41.974Z,25.40
2018-05-31T22:42:15.155Z,25.30
2018-05-31T22:44:48.447Z,25.30
2018-05-31T22:47:22.414Z,25.30
2018-05-31T22:49:55.643Z,25.30
2018-05-31T22:52:28.728Z,25.20
2018-05-31T22:55:01.986Z,24.90
2018-05-31T22:57:35.119Z,25.00
2018-05-31T23:00:08.125Z,25.00
2018-05-31T23:02:42.162Z,24.70
2018-05-31T23:05:15.301Z,24.60
2018-05-31T23:07:48.444Z,24.60
2018-05-31T23:10:22.405Z,24.90
2018-05-31T23:12:56.424Z,24.80
2018-05-31T23:15:29.525Z,24.70
2018-05-31T23:18:02.736Z,24.50
2018-05-31T23:20:36.807Z,24.50
2018-05-31T23:23:09.986Z,24.40
2018-05-31T23:25:43.265Z,24.50
2018-05-31T23:28:16.525Z,24.70
2018-05-31T23:30:49.495Z,24.20
2018-05-31T23:33:22.728Z,24.60
2018-05-31T23:35:55.932Z,24.30
2018-05-31T23:38:29.112Z,24.20
2018-05-31T23:41:02.338Z,24.20
2018-05-31T23:43:35.539Z,24.20
2018-05-31T23:46:08.689Z,23.90
2018-05-31T23:48:41.971Z,23.70
2018-05-31T23:51:15.154Z,24.20
2018-05-31T23:53:48.428Z,23.90
2018-05-31T23:56:22.411Z,24.30
2018-05-31T23:58:55.640Z,24.30
